Aviation Digital Data Service (ADDS)

Output produced by METARs form (0354 UTC 07 June 2020)
found at http://aviationweather.gov/metar/data/
 
METAR text: EYKA 070350Z 11004KT CAVOK 14/12 Q1010
Conditions at: EYKA (KAUNAS , LT) observed 0350 UTC 07 June 2020
Temperature: 14.0°C (57°F)
Dewpoint: 12.0°C (54°F) [RH = 88%]
Pressure (altimeter): 29.82 inches Hg (1010.0 mb)
Winds: from the ESE (110 degrees) at 5 MPH (4 knots; 2.1 m/s)
Visibility: 6 or more miles (10+ km)
Ceiling: ceiling and visibility are OK
Clouds: unknown
Weather: no significant weather observed at this time

METAR text: EYKA 070320Z VRB01KT CAVOK 14/11 Q1010
Conditions at: EYKA (KAUNAS , LT) observed 0320 UTC 07 June 2020
Temperature: 14.0°C (57°F)
Dewpoint: 11.0°C (52°F) [RH = 82%]
Pressure (altimeter): 29.82 inches Hg (1010.0 mb)
Winds: variable direction winds at 1 MPH (1 knots; 0.5 m/s)
Visibility: 6 or more miles (10+ km)
Ceiling: ceiling and visibility are OK
Clouds: unknown
Weather: no significant weather observed at this time

METAR text: EYKA 070250Z VRB02KT 8000 NSC 13/11 Q1010
Conditions at: EYKA (KAUNAS , LT) observed 0250 UTC 07 June 2020
Temperature: 13.0°C (55°F)
Dewpoint: 11.0°C (52°F) [RH = 88%]
Pressure (altimeter): 29.82 inches Hg (1010.0 mb)
Winds: variable direction winds at 2 MPH (2 knots; 1.0 m/s)
Visibility: 5 miles ( 8 km)
Ceiling: at least 12,000 feet AGL
Clouds: sky clear below 12,000 feet AGL
Weather: no significant weather observed at this time

METAR text: EYKA 070220Z VRB01KT CAVOK 12/10 Q1010
Conditions at: EYKA (KAUNAS , LT) observed 0220 UTC 07 June 2020
Temperature: 12.0°C (54°F)
Dewpoint: 10.0°C (50°F) [RH = 88%]
Pressure (altimeter): 29.82 inches Hg (1010.0 mb)
Winds: variable direction winds at 1 MPH (1 knots; 0.5 m/s)
Visibility: 6 or more miles (10+ km)
Ceiling: ceiling and visibility are OK
Clouds: unknown
Weather: no significant weather observed at this time

Forecast for: EYKA (KAUNAS , LT)
Text: TAF EYKA 062302Z 0700/0724 VRB04KT 9000 NSC
Forecast period: 0000 to 0800 UTC 07 June 2020
Forecast type: FROM: standard forecast or significant change
Winds: variable direction winds at 5 MPH (4 knots; 2.1 m/s)
Visibility: 6 miles (9 km)
Ceiling: unknown
Clouds: missing
Weather: no significant weather forecast for this period
Text: TEMPO 0700/0704 SCT040CB
Forecast period: 0000 to 0400 UTC 07 June 2020
Forecast type: TEMPORARY: The following changes expected for less than half the time period
Visibility: missing
Ceiling: at least 12,000 feet AGL
Clouds: scattered clouds at 4000 feet AGL
Weather: no significant weather forecast for this period
Text: BECMG 0708/0710 SCT035CB BKN040
Forecast period: 0800 to 1600 UTC 07 June 2020
Forecast type: BECOMING: Conditions expected to become as follows by 1000 UTC 07 June 2020
Winds: variable direction winds at 5 MPH (4 knots; 2.1 m/s)
Visibility: 6 miles (9 km)
Ceiling: 4000 feet AGL
Clouds: scattered clouds at 3500 feet AGL
broken clouds at 4000 feet AGL
Weather: no significant weather forecast for this period
Text: TEMPO 0710/0715 VRB30KT 1000 TSRA BKN005 BKN020CB
Forecast period: 1000 to 1500 UTC 07 June 2020
Forecast type: TEMPORARY: The following changes expected for less than half the time period
Winds: variable direction winds at 34 MPH (30 knots; 15.4 m/s)
Visibility: 0.62 miles (1.00 km)
Ceiling: 500 feet AGL
Clouds: broken clouds at 500 feet AGL
broken clouds at 2000 feet AGL
Weather: TSRA  (rain associated with thunderstorm(s))
Text: BECMG 0716/0718 NSC
Forecast period: 1600 UTC 07 June 2020 to 0000 UTC 08 June 2020
Forecast type: BECOMING: Conditions expected to become as follows by 1800 UTC 07 June 2020
Winds: variable direction winds at 5 MPH (4 knots; 2.1 m/s)
Visibility: 6 miles (9 km)
Ceiling: unknown
Clouds: missing
Weather: no significant weather forecast for this period
Text: TEMPO 0720/0724 0800 FG VV002
Forecast period: 2000 UTC 07 June 2020 to 0000 UTC 08 June 2020
Forecast type: TEMPORARY: The following changes expected for less than half the time period
Visibility: 0.50 miles (0.80 km)
Ceiling: indefinite ceiling with vertical visibility of 200 feet AGL
Clouds: obscured sky
Weather: FG  (fog)